sensor_id;sensor_type;location;lat;lon;timestamp;P1;durP1;ratioP1;P2;durP2;ratioP2
8331;SDS011;4203;48.144;14.118;2023-02-11T00:02:01;43.33;;;25.10;;
8331;SDS011;4203;48.144;14.118;2023-02-11T00:04:29;44.77;;;25.07;;
8331;SDS011;4203;48.144;14.118;2023-02-11T00:06:56;45.40;;;26.33;;
8331;SDS011;4203;48.144;14.118;2023-02-11T00:09:23;46.20;;;25.13;;
8331;SDS011;4203;48.144;14.118;2023-02-11T00:11:52;43.23;;;26.40;;
8331;SDS011;4203;48.144;14.118;2023-02-11T00:14:19;44.40;;;26.13;;
8331;SDS011;4203;48.144;14.118;2023-02-11T00:16:46;45.50;;;24.63;;
8331;SDS011;4203;48.144;14.118;2023-02-11T00:19:13;41.40;;;24.70;;
8331;SDS011;4203;48.144;14.118;2023-02-11T00:21:40;43.83;;;25.27;;
8331;SDS011;4203;48.144;14.118;2023-02-11T00:24:07;37.63;;;23.90;;
8331;SDS011;4203;48.144;14.118;2023-02-11T00:26:34;39.50;;;23.60;;
8331;SDS011;4203;48.144;14.118;2023-02-11T00:29:03;41.47;;;23.90;;
8331;SDS011;4203;48.144;14.118;2023-02-11T00:31:31;42.83;;;24.10;;
8331;SDS011;4203;48.144;14.118;2023-02-11T00:33:58;39.83;;;23.53;;
8331;SDS011;4203;48.144;14.118;2023-02-11T00:36:26;38.90;;;23.90;;
8331;SDS011;4203;48.144;14.118;2023-02-11T00:38:55;42.23;;;23.37;;
8331;SDS011;4203;48.144;14.118;2023-02-11T00:41:23;40.43;;;22.93;;
8331;SDS011;4203;48.144;14.118;2023-02-11T00:43:50;39.17;;;24.50;;
8331;SDS011;4203;48.144;14.118;2023-02-11T00:46:19;42.77;;;22.70;;
8331;SDS011;4203;48.144;14.118;2023-02-11T00:48:46;37.37;;;22.60;;
8331;SDS011;4203;48.144;14.118;2023-02-11T00:51:13;40.63;;;23.40;;
8331;SDS011;4203;48.144;14.118;2023-02-11T00:53:41;44.37;;;24.30;;
8331;SDS011;4203;48.144;14.118;2023-02-11T00:56:08;39.50;;;22.90;;
8331;SDS011;4203;48.144;14.118;2023-02-11T00:58:35;44.73;;;23.47;;
8331;SDS011;4203;48.144;14.118;2023-02-11T01:01:02;44.27;;;24.43;;
8331;SDS011;4203;48.144;14.118;2023-02-11T01:03:31;43.73;;;24.90;;
8331;SDS011;4203;48.144;14.118;2023-02-11T01:05:58;41.73;;;24.47;;
8331;SDS011;4203;48.144;14.118;2023-02-11T01:08:26;44.20;;;24.73;;
8331;SDS011;4203;48.144;14.118;2023-02-11T01:10:54;40.93;;;24.03;;
8331;SDS011;4203;48.144;14.118;2023-02-11T01:13:22;38.03;;;23.60;;
8331;SDS011;4203;48.144;14.118;2023-02-11T01:15:50;41.63;;;25.60;;
8331;SDS011;4203;48.144;14.118;2023-02-11T01:18:17;42.40;;;24.13;;
8331;SDS011;4203;48.144;14.118;2023-02-11T01:20:46;45.47;;;23.73;;
8331;SDS011;4203;48.144;14.118;2023-02-11T01:23:13;40.10;;;23.60;;
8331;SDS011;4203;48.144;14.118;2023-02-11T01:25:40;38.00;;;23.47;;
8331;SDS011;4203;48.144;14.118;2023-02-11T01:28:11;39.60;;;24.80;;
8331;SDS011;4203;48.144;14.118;2023-02-11T01:30:42;39.73;;;23.03;;
8331;SDS011;4203;48.144;14.118;2023-02-11T01:33:09;46.37;;;24.50;;
8331;SDS011;4203;48.144;14.118;2023-02-11T01:35:36;43.17;;;24.50;;
8331;SDS011;4203;48.144;14.118;2023-02-11T01:38:05;41.03;;;23.30;;
8331;SDS011;4203;48.144;14.118;2023-02-11T01:40:32;38.07;;;22.00;;
8331;SDS011;4203;48.144;14.118;2023-02-11T01:43:00;43.47;;;23.90;;
8331;SDS011;4203;48.144;14.118;2023-02-11T01:45:51;39.53;;;22.63;;
8331;SDS011;4203;48.144;14.118;2023-02-11T01:48:24;37.00;;;22.23;;
8331;SDS011;4203;48.144;14.118;2023-02-11T01:50:56;38.70;;;22.33;;
8331;SDS011;4203;48.144;14.118;2023-02-11T01:53:29;41.70;;;23.20;;
8331;SDS011;4203;48.144;14.118;2023-02-11T01:56:16;36.03;;;22.27;;
8331;SDS011;4203;48.144;14.118;2023-02-11T01:59:02;39.87;;;22.60;;
8331;SDS011;4203;48.144;14.118;2023-02-11T02:01:35;32.77;;;20.87;;
8331;SDS011;4203;48.144;14.118;2023-02-11T02:04:05;32.40;;;21.30;;
8331;SDS011;4203;48.144;14.118;2023-02-11T02:06:36;37.57;;;21.63;;
8331;SDS011;4203;48.144;14.118;2023-02-11T02:09:12;34.93;;;21.17;;
8331;SDS011;4203;48.144;14.118;2023-02-11T02:11:45;36.97;;;20.90;;
8331;SDS011;4203;48.144;14.118;2023-02-11T02:14:12;38.77;;;22.53;;
8331;SDS011;4203;48.144;14.118;2023-02-11T02:16:40;35.03;;;21.50;;
8331;SDS011;4203;48.144;14.118;2023-02-11T02:19:13;39.97;;;21.90;;
8331;SDS011;4203;48.144;14.118;2023-02-11T02:22:17;34.60;;;20.03;;
8331;SDS011;4203;48.144;14.118;2023-02-11T02:25:19;34.03;;;20.60;;
8331;SDS011;4203;48.144;14.118;2023-02-11T02:28:10;36.27;;;22.00;;
8331;SDS011;4203;48.144;14.118;2023-02-11T02:34:05;33.70;;;19.67;;
8331;SDS011;4203;48.144;14.118;2023-02-11T02:36:40;40.97;;;22.97;;
8331;SDS011;4203;48.144;14.118;2023-02-11T02:39:14;37.43;;;21.60;;
8331;SDS011;4203;48.144;14.118;2023-02-11T02:41:46;39.60;;;23.43;;
8331;SDS011;4203;48.144;14.118;2023-02-11T02:44:16;41.63;;;23.67;;
8331;SDS011;4203;48.144;14.118;2023-02-11T02:46:44;44.30;;;24.47;;
8331;SDS011;4203;48.144;14.118;2023-02-11T02:49:13;42.80;;;23.63;;
8331;SDS011;4203;48.144;14.118;2023-02-11T02:51:45;43.87;;;24.23;;
8331;SDS011;4203;48.144;14.118;2023-02-11T02:54:32;36.60;;;22.60;;
8331;SDS011;4203;48.144;14.118;2023-02-11T02:57:17;44.20;;;24.53;;
8331;SDS011;4203;48.144;14.118;2023-02-11T02:59:59;43.03;;;23.83;;
8331;SDS011;4203;48.144;14.118;2023-02-11T03:02:35;39.70;;;23.70;;
8331;SDS011;4203;48.144;14.118;2023-02-11T03:05:09;40.07;;;23.13;;
8331;SDS011;4203;48.144;14.118;2023-02-11T03:07:42;39.97;;;23.03;;
8331;SDS011;4203;48.144;14.118;2023-02-11T03:10:14;38.60;;;21.50;;
8331;SDS011;4203;48.144;14.118;2023-02-11T03:12:46;40.90;;;22.80;;
8331;SDS011;4203;48.144;14.118;2023-02-11T03:15:14;37.00;;;22.23;;
8331;SDS011;4203;48.144;14.118;2023-02-11T03:17:45;39.57;;;22.43;;
8331;SDS011;4203;48.144;14.118;2023-02-11T03:20:16;40.63;;;22.03;;
8331;SDS011;4203;48.144;14.118;2023-02-11T03:22:47;37.27;;;20.80;;
8331;SDS011;4203;48.144;14.118;2023-02-11T03:25:17;35.53;;;21.27;;
8331;SDS011;4203;48.144;14.118;2023-02-11T03:27:46;34.50;;;19.93;;
8331;SDS011;4203;48.144;14.118;2023-02-11T03:30:20;36.00;;;21.10;;
8331;SDS011;4203;48.144;14.118;2023-02-11T03:32:51;34.37;;;21.03;;
8331;SDS011;4203;48.144;14.118;2023-02-11T03:35:24;42.60;;;23.10;;
8331;SDS011;4203;48.144;14.118;2023-02-11T03:37:58;39.83;;;21.77;;
8331;SDS011;4203;48.144;14.118;2023-02-11T03:40:30;36.73;;;21.50;;
8331;SDS011;4203;48.144;14.118;2023-02-11T03:43:02;35.17;;;21.17;;
8331;SDS011;4203;48.144;14.118;2023-02-11T03:45:34;32.50;;;19.27;;
8331;SDS011;4203;48.144;14.118;2023-02-11T03:48:03;40.17;;;20.57;;
8331;SDS011;4203;48.144;14.118;2023-02-11T03:50:34;33.47;;;19.57;;
8331;SDS011;4203;48.144;14.118;2023-02-11T03:53:03;35.53;;;20.80;;
8331;SDS011;4203;48.144;14.118;2023-02-11T03:55:32;33.17;;;20.10;;
8331;SDS011;4203;48.144;14.118;2023-02-11T03:58:02;33.30;;;20.37;;
8331;SDS011;4203;48.144;14.118;2023-02-11T04:00:29;34.87;;;20.17;;
8331;SDS011;4203;48.144;14.118;2023-02-11T04:02:57;34.17;;;19.57;;
8331;SDS011;4203;48.144;14.118;2023-02-11T04:05:24;31.80;;;19.63;;
8331;SDS011;4203;48.144;14.118;2023-02-11T04:07:53;35.07;;;19.27;;
8331;SDS011;4203;48.144;14.118;2023-02-11T04:10:20;31.07;;;19.00;;
8331;SDS011;4203;48.144;14.118;2023-02-11T04:12:48;32.77;;;19.57;;
8331;SDS011;4203;48.144;14.118;2023-02-11T04:15:15;33.50;;;19.90;;
8331;SDS011;4203;48.144;14.118;2023-02-11T04:17:43;36.37;;;20.07;;
8331;SDS011;4203;48.144;14.118;2023-02-11T04:20:10;32.67;;;19.70;;
8331;SDS011;4203;48.144;14.118;2023-02-11T04:22:38;34.87;;;19.33;;
8331;SDS011;4203;48.144;14.118;2023-02-11T04:25:07;33.27;;;20.03;;
8331;SDS011;4203;48.144;14.118;2023-02-11T04:27:35;28.93;;;18.97;;
8331;SDS011;4203;48.144;14.118;2023-02-11T04:30:02;28.83;;;18.13;;
8331;SDS011;4203;48.144;14.118;2023-02-11T04:32:31;34.73;;;19.80;;
8331;SDS011;4203;48.144;14.118;2023-02-11T04:34:58;32.60;;;17.80;;
8331;SDS011;4203;48.144;14.118;2023-02-11T04:37:25;30.00;;;18.53;;
8331;SDS011;4203;48.144;14.118;2023-02-11T04:39:52;30.43;;;18.07;;
8331;SDS011;4203;48.144;14.118;2023-02-11T04:42:21;29.23;;;17.47;;
8331;SDS011;4203;48.144;14.118;2023-02-11T04:44:48;30.30;;;18.13;;
8331;SDS011;4203;48.144;14.118;2023-02-11T04:47:15;27.13;;;17.20;;
8331;SDS011;4203;48.144;14.118;2023-02-11T04:49:42;29.07;;;17.20;;
8331;SDS011;4203;48.144;14.118;2023-02-11T04:52:09;30.53;;;18.33;;
8331;SDS011;4203;48.144;14.118;2023-02-11T04:54:36;39.00;;;19.33;;
8331;SDS011;4203;48.144;14.118;2023-02-11T04:57:04;31.20;;;19.10;;
8331;SDS011;4203;48.144;14.118;2023-02-11T04:59:32;32.93;;;20.00;;
8331;SDS011;4203;48.144;14.118;2023-02-11T05:02:00;31.60;;;18.97;;
8331;SDS011;4203;48.144;14.118;2023-02-11T05:04:28;33.37;;;19.67;;
8331;SDS011;4203;48.144;14.118;2023-02-11T05:06:55;32.70;;;19.30;;
8331;SDS011;4203;48.144;14.118;2023-02-11T05:09:22;33.27;;;19.73;;
8331;SDS011;4203;48.144;14.118;2023-02-11T05:11:49;32.80;;;20.07;;
8331;SDS011;4203;48.144;14.118;2023-02-11T05:14:17;33.13;;;19.90;;
8331;SDS011;4203;48.144;14.118;2023-02-11T05:16:46;28.83;;;18.63;;
8331;SDS011;4203;48.144;14.118;2023-02-11T05:19:13;38.53;;;21.23;;
8331;SDS011;4203;48.144;14.118;2023-02-11T05:21:40;35.80;;;21.53;;
8331;SDS011;4203;48.144;14.118;2023-02-11T05:24:07;31.67;;;19.63;;
8331;SDS011;4203;48.144;14.118;2023-02-11T05:26:34;31.23;;;19.60;;
8331;SDS011;4203;48.144;14.118;2023-02-11T05:29:01;35.83;;;20.37;;
8331;SDS011;4203;48.144;14.118;2023-02-11T05:31:28;39.20;;;20.53;;
8331;SDS011;4203;48.144;14.118;2023-02-11T05:33:58;36.57;;;19.80;;
8331;SDS011;4203;48.144;14.118;2023-02-11T05:36:28;35.20;;;19.53;;
8331;SDS011;4203;48.144;14.118;2023-02-11T05:38:55;33.80;;;20.37;;
8331;SDS011;4203;48.144;14.118;2023-02-11T05:41:22;35.40;;;20.10;;
8331;SDS011;4203;48.144;14.118;2023-02-11T05:43:49;29.93;;;18.53;;
8331;SDS011;4203;48.144;14.118;2023-02-11T05:46:17;31.83;;;19.70;;
8331;SDS011;4203;48.144;14.118;2023-02-11T05:48:44;31.70;;;18.93;;
8331;SDS011;4203;48.144;14.118;2023-02-11T05:51:12;30.80;;;18.33;;
8331;SDS011;4203;48.144;14.118;2023-02-11T05:53:40;32.90;;;19.60;;
8331;SDS011;4203;48.144;14.118;2023-02-11T05:56:07;32.47;;;19.43;;
8331;SDS011;4203;48.144;14.118;2023-02-11T05:58:35;31.83;;;18.73;;
8331;SDS011;4203;48.144;14.118;2023-02-11T06:01:03;34.30;;;19.03;;
8331;SDS011;4203;48.144;14.118;2023-02-11T06:03:31;34.00;;;19.83;;
8331;SDS011;4203;48.144;14.118;2023-02-11T06:05:58;31.10;;;19.10;;
8331;SDS011;4203;48.144;14.118;2023-02-11T06:08:26;31.67;;;19.67;;
8331;SDS011;4203;48.144;14.118;2023-02-11T06:10:53;37.80;;;20.73;;
8331;SDS011;4203;48.144;14.118;2023-02-11T06:13:21;37.30;;;21.00;;
8331;SDS011;4203;48.144;14.118;2023-02-11T06:15:54;38.53;;;21.37;;
8331;SDS011;4203;48.144;14.118;2023-02-11T06:18:22;29.87;;;19.10;;
8331;SDS011;4203;48.144;14.118;2023-02-11T06:20:49;30.27;;;17.70;;
8331;SDS011;4203;48.144;14.118;2023-02-11T06:23:17;27.67;;;18.00;;
8331;SDS011;4203;48.144;14.118;2023-02-11T06:25:45;32.10;;;19.33;;
8331;SDS011;4203;48.144;14.118;2023-02-11T06:28:12;32.80;;;18.60;;
8331;SDS011;4203;48.144;14.118;2023-02-11T06:30:39;31.47;;;18.63;;
8331;SDS011;4203;48.144;14.118;2023-02-11T06:33:07;27.97;;;17.23;;
8331;SDS011;4203;48.144;14.118;2023-02-11T06:35:36;30.80;;;18.83;;
8331;SDS011;4203;48.144;14.118;2023-02-11T06:38:04;29.33;;;18.17;;
8331;SDS011;4203;48.144;14.118;2023-02-11T06:40:31;33.77;;;19.80;;
8331;SDS011;4203;48.144;14.118;2023-02-11T06:43:00;33.30;;;20.17;;
8331;SDS011;4203;48.144;14.118;2023-02-11T06:45:27;33.07;;;19.17;;
8331;SDS011;4203;48.144;14.118;2023-02-11T06:47:54;27.97;;;18.27;;
8331;SDS011;4203;48.144;14.118;2023-02-11T06:50:21;33.60;;;19.47;;
8331;SDS011;4203;48.144;14.118;2023-02-11T06:52:48;30.40;;;18.27;;
8331;SDS011;4203;48.144;14.118;2023-02-11T06:55:15;27.97;;;18.13;;
8331;SDS011;4203;48.144;14.118;2023-02-11T06:57:43;27.50;;;19.10;;
8331;SDS011;4203;48.144;14.118;2023-02-11T07:00:12;28.93;;;18.60;;
8331;SDS011;4203;48.144;14.118;2023-02-11T07:02:40;31.80;;;19.43;;
8331;SDS011;4203;48.144;14.118;2023-02-11T07:05:07;31.93;;;19.87;;
8331;SDS011;4203;48.144;14.118;2023-02-11T07:07:34;33.30;;;20.53;;
8331;SDS011;4203;48.144;14.118;2023-02-11T07:10:02;33.17;;;19.57;;
8331;SDS011;4203;48.144;14.118;2023-02-11T07:12:30;28.60;;;18.77;;
8331;SDS011;4203;48.144;14.118;2023-02-11T07:14:57;29.60;;;18.53;;
8331;SDS011;4203;48.144;14.118;2023-02-11T07:17:26;36.00;;;18.93;;
8331;SDS011;4203;48.144;14.118;2023-02-11T07:19:53;35.03;;;19.20;;
8331;SDS011;4203;48.144;14.118;2023-02-11T07:22:20;33.83;;;19.83;;
8331;SDS011;4203;48.144;14.118;2023-02-11T07:24:47;33.13;;;19.73;;
8331;SDS011;4203;48.144;14.118;2023-02-11T07:27:14;34.30;;;21.63;;
8331;SDS011;4203;48.144;14.118;2023-02-11T07:29:41;38.43;;;22.73;;
8331;SDS011;4203;48.144;14.118;2023-02-11T07:32:10;36.73;;;23.10;;
8331;SDS011;4203;48.144;14.118;2023-02-11T07:34:38;38.93;;;24.10;;
8331;SDS011;4203;48.144;14.118;2023-02-11T07:37:06;40.93;;;24.67;;
8331;SDS011;4203;48.144;14.118;2023-02-11T07:39:33;41.83;;;23.57;;
8331;SDS011;4203;48.144;14.118;2023-02-11T07:42:00;29.00;;;18.77;;
8331;SDS011;4203;48.144;14.118;2023-02-11T07:44:28;30.83;;;20.80;;
8331;SDS011;4203;48.144;14.118;2023-02-11T07:46:57;31.20;;;18.80;;
8331;SDS011;4203;48.144;14.118;2023-02-11T07:49:24;27.17;;;17.97;;
8331;SDS011;4203;48.144;14.118;2023-02-11T07:51:53;27.83;;;17.90;;
8331;SDS011;4203;48.144;14.118;2023-02-11T07:54:20;29.93;;;19.27;;
8331;SDS011;4203;48.144;14.118;2023-02-11T07:56:47;32.80;;;19.57;;
8331;SDS011;4203;48.144;14.118;2023-02-11T07:59:14;31.80;;;19.67;;
8331;SDS011;4203;48.144;14.118;2023-02-11T08:01:41;34.07;;;20.80;;
8331;SDS011;4203;48.144;14.118;2023-02-11T08:04:09;40.00;;;23.33;;
8331;SDS011;4203;48.144;14.118;2023-02-11T08:06:39;40.70;;;22.50;;
8331;SDS011;4203;48.144;14.118;2023-02-11T08:09:10;36.67;;;21.70;;
8331;SDS011;4203;48.144;14.118;2023-02-11T08:11:40;37.87;;;22.87;;
8331;SDS011;4203;48.144;14.118;2023-02-11T08:14:08;34.17;;;22.33;;
8331;SDS011;4203;48.144;14.118;2023-02-11T08:16:36;39.37;;;22.47;;
8331;SDS011;4203;48.144;14.118;2023-02-11T08:19:04;36.40;;;22.10;;
8331;SDS011;4203;48.144;14.118;2023-02-11T08:21:32;31.77;;;21.03;;
8331;SDS011;4203;48.144;14.118;2023-02-11T08:24:00;36.13;;;22.27;;
8331;SDS011;4203;48.144;14.118;2023-02-11T08:26:29;34.87;;;21.43;;
8331;SDS011;4203;48.144;14.118;2023-02-11T08:28:59;35.17;;;21.00;;
8331;SDS011;4203;48.144;14.118;2023-02-11T08:31:27;33.67;;;21.47;;
8331;SDS011;4203;48.144;14.118;2023-02-11T08:33:57;31.53;;;20.13;;
8331;SDS011;4203;48.144;14.118;2023-02-11T08:36:27;30.27;;;19.60;;
8331;SDS011;4203;48.144;14.118;2023-02-11T08:38:55;32.60;;;19.07;;
8331;SDS011;4203;48.144;14.118;2023-02-11T08:41:24;28.97;;;18.63;;
8331;SDS011;4203;48.144;14.118;2023-02-11T08:43:53;31.83;;;18.33;;
8331;SDS011;4203;48.144;14.118;2023-02-11T08:46:21;27.80;;;19.50;;
8331;SDS011;4203;48.144;14.118;2023-02-11T08:48:48;29.13;;;18.53;;
8331;SDS011;4203;48.144;14.118;2023-02-11T08:51:16;28.43;;;18.33;;
8331;SDS011;4203;48.144;14.118;2023-02-11T08:53:45;25.13;;;17.13;;
8331;SDS011;4203;48.144;14.118;2023-02-11T08:56:13;29.10;;;16.57;;
8331;SDS011;4203;48.144;14.118;2023-02-11T08:58:42;23.50;;;16.67;;
8331;SDS011;4203;48.144;14.118;2023-02-11T09:01:11;25.50;;;16.83;;
8331;SDS011;4203;48.144;14.118;2023-02-11T09:03:40;24.53;;;15.60;;
8331;SDS011;4203;48.144;14.118;2023-02-11T09:06:08;23.57;;;14.77;;
8331;SDS011;4203;48.144;14.118;2023-02-11T09:08:36;23.50;;;15.83;;
8331;SDS011;4203;48.144;14.118;2023-02-11T09:11:05;24.27;;;15.57;;
8331;SDS011;4203;48.144;14.118;2023-02-11T09:13:34;23.10;;;15.70;;
8331;SDS011;4203;48.144;14.118;2023-02-11T09:16:03;22.00;;;15.53;;
8331;SDS011;4203;48.144;14.118;2023-02-11T09:18:32;23.27;;;16.00;;
8331;SDS011;4203;48.144;14.118;2023-02-11T09:21:03;22.83;;;14.90;;
8331;SDS011;4203;48.144;14.118;2023-02-11T09:23:31;23.33;;;14.90;;
8331;SDS011;4203;48.144;14.118;2023-02-11T09:25:59;22.80;;;14.40;;
8331;SDS011;4203;48.144;14.118;2023-02-11T09:28:30;24.20;;;15.80;;
8331;SDS011;4203;48.144;14.118;2023-02-11T09:30:57;25.07;;;15.83;;
8331;SDS011;4203;48.144;14.118;2023-02-11T09:33:24;22.73;;;16.03;;
8331;SDS011;4203;48.144;14.118;2023-02-11T09:35:53;25.80;;;15.77;;
8331;SDS011;4203;48.144;14.118;2023-02-11T09:38:20;26.50;;;16.93;;
8331;SDS011;4203;48.144;14.118;2023-02-11T09:40:47;24.17;;;15.80;;
8331;SDS011;4203;48.144;14.118;2023-02-11T09:43:15;24.20;;;16.77;;
8331;SDS011;4203;48.144;14.118;2023-02-11T09:45:45;22.97;;;15.73;;
8331;SDS011;4203;48.144;14.118;2023-02-11T09:48:13;26.00;;;16.90;;
8331;SDS011;4203;48.144;14.118;2023-02-11T09:50:43;26.10;;;16.97;;
8331;SDS011;4203;48.144;14.118;2023-02-11T09:53:16;35.37;;;17.17;;
8331;SDS011;4203;48.144;14.118;2023-02-11T09:55:50;21.83;;;16.07;;
8331;SDS011;4203;48.144;14.118;2023-02-11T09:58:23;22.93;;;15.90;;
8331;SDS011;4203;48.144;14.118;2023-02-11T10:00:54;22.53;;;16.33;;
8331;SDS011;4203;48.144;14.118;2023-02-11T10:03:38;22.77;;;16.07;;
8331;SDS011;4203;48.144;14.118;2023-02-11T10:06:23;22.23;;;15.50;;
8331;SDS011;4203;48.144;14.118;2023-02-11T10:09:06;22.87;;;16.00;;
8331;SDS011;4203;48.144;14.118;2023-02-11T10:12:00;22.83;;;16.00;;
8331;SDS011;4203;48.144;14.118;2023-02-11T10:14:56;21.03;;;14.93;;
8331;SDS011;4203;48.144;14.118;2023-02-11T10:17:40;23.47;;;15.27;;
8331;SDS011;4203;48.144;14.118;2023-02-11T10:20:20;23.27;;;15.13;;
8331;SDS011;4203;48.144;14.118;2023-02-11T10:22:58;19.93;;;15.20;;
8331;SDS011;4203;48.144;14.118;2023-02-11T10:25:32;24.87;;;16.17;;
8331;SDS011;4203;48.144;14.118;2023-02-11T10:28:09;21.83;;;15.60;;
8331;SDS011;4203;48.144;14.118;2023-02-11T10:30:40;24.93;;;15.67;;
8331;SDS011;4203;48.144;14.118;2023-02-11T10:33:11;22.63;;;15.73;;
8331;SDS011;4203;48.144;14.118;2023-02-11T10:35:45;21.33;;;14.83;;
8331;SDS011;4203;48.144;14.118;2023-02-11T10:38:12;24.90;;;15.33;;
8331;SDS011;4203;48.144;14.118;2023-02-11T10:40:41;21.20;;;14.50;;
8331;SDS011;4203;48.144;14.118;2023-02-11T10:43:09;20.67;;;14.53;;
8331;SDS011;4203;48.144;14.118;2023-02-11T10:45:40;21.13;;;15.20;;
8331;SDS011;4203;48.144;14.118;2023-02-11T10:51:07;20.23;;;14.63;;
8331;SDS011;4203;48.144;14.118;2023-02-11T10:53:41;20.23;;;15.33;;
8331;SDS011;4203;48.144;14.118;2023-02-11T10:56:11;20.17;;;14.33;;
8331;SDS011;4203;48.144;14.118;2023-02-11T10:58:45;24.03;;;14.60;;
8331;SDS011;4203;48.144;14.118;2023-02-11T11:01:20;19.23;;;14.17;;
8331;SDS011;4203;48.144;14.118;2023-02-11T11:03:49;18.70;;;13.37;;
8331;SDS011;4203;48.144;14.118;2023-02-11T11:06:27;19.23;;;13.80;;
8331;SDS011;4203;48.144;14.118;2023-02-11T11:08:56;20.43;;;14.37;;
8331;SDS011;4203;48.144;14.118;2023-02-11T11:11:25;20.10;;;13.83;;
8331;SDS011;4203;48.144;14.118;2023-02-11T11:13:54;17.43;;;11.90;;
8331;SDS011;4203;48.144;14.118;2023-02-11T11:16:24;17.23;;;12.13;;
8331;SDS011;4203;48.144;14.118;2023-02-11T11:18:53;17.53;;;12.50;;
8331;SDS011;4203;48.144;14.118;2023-02-11T11:21:46;19.43;;;12.93;;
8331;SDS011;4203;48.144;14.118;2023-02-11T11:24:15;18.80;;;12.33;;
8331;SDS011;4203;48.144;14.118;2023-02-11T11:26:47;17.30;;;12.17;;
8331;SDS011;4203;48.144;14.118;2023-02-11T11:29:16;17.27;;;12.33;;
8331;SDS011;4203;48.144;14.118;2023-02-11T11:31:48;21.30;;;10.97;;
8331;SDS011;4203;48.144;14.118;2023-02-11T11:34:19;17.20;;;12.50;;
8331;SDS011;4203;48.144;14.118;2023-02-11T11:36:49;18.77;;;12.73;;
8331;SDS011;4203;48.144;14.118;2023-02-11T11:39:17;18.17;;;12.47;;
8331;SDS011;4203;48.144;14.118;2023-02-11T11:41:51;16.20;;;12.03;;
8331;SDS011;4203;48.144;14.118;2023-02-11T11:44:27;17.07;;;12.10;;
8331;SDS011;4203;48.144;14.118;2023-02-11T11:47:10;16.33;;;12.47;;
8331;SDS011;4203;48.144;14.118;2023-02-11T11:49:48;18.07;;;13.00;;
8331;SDS011;4203;48.144;14.118;2023-02-11T11:52:27;19.27;;;12.80;;
8331;SDS011;4203;48.144;14.118;2023-02-11T11:55:05;16.50;;;12.23;;
8331;SDS011;4203;48.144;14.118;2023-02-11T11:57:42;18.43;;;13.10;;
8331;SDS011;4203;48.144;14.118;2023-02-11T12:00:13;19.30;;;13.10;;
8331;SDS011;4203;48.144;14.118;2023-02-11T12:06:02;20.77;;;13.20;;
8331;SDS011;4203;48.144;14.118;2023-02-11T12:08:47;19.20;;;13.03;;
8331;SDS011;4203;48.144;14.118;2023-02-11T12:11:29;19.13;;;12.97;;
8331;SDS011;4203;48.144;14.118;2023-02-11T12:14:08;17.70;;;13.07;;
8331;SDS011;4203;48.144;14.118;2023-02-11T12:16:49;18.23;;;12.17;;
8331;SDS011;4203;48.144;14.118;2023-02-11T12:19:28;21.10;;;14.07;;
8331;SDS011;4203;48.144;14.118;2023-02-11T12:22:18;16.77;;;12.50;;
8331;SDS011;4203;48.144;14.118;2023-02-11T12:25:03;19.90;;;13.47;;
8331;SDS011;4203;48.144;14.118;2023-02-11T12:27:48;21.37;;;14.47;;
8331;SDS011;4203;48.144;14.118;2023-02-11T12:30:31;18.30;;;13.73;;
8331;SDS011;4203;48.144;14.118;2023-02-11T12:33:10;19.53;;;13.80;;
8331;SDS011;4203;48.144;14.118;2023-02-11T12:35:47;23.93;;;14.27;;
8331;SDS011;4203;48.144;14.118;2023-02-11T12:38:28;20.40;;;13.53;;
8331;SDS011;4203;48.144;14.118;2023-02-11T12:41:22;23.50;;;14.20;;
8331;SDS011;4203;48.144;14.118;2023-02-11T12:44:21;19.33;;;13.03;;
8331;SDS011;4203;48.144;14.118;2023-02-11T12:47:15;21.57;;;14.50;;
8331;SDS011;4203;48.144;14.118;2023-02-11T12:49:56;19.70;;;14.37;;
8331;SDS011;4203;48.144;14.118;2023-02-11T12:52:43;19.73;;;13.60;;
8331;SDS011;4203;48.144;14.118;2023-02-11T12:55:22;18.07;;;13.70;;
8331;SDS011;4203;48.144;14.118;2023-02-11T12:57:52;26.13;;;15.33;;
8331;SDS011;4203;48.144;14.118;2023-02-11T13:00:22;21.73;;;13.77;;
8331;SDS011;4203;48.144;14.118;2023-02-11T13:02:55;24.83;;;14.17;;
8331;SDS011;4203;48.144;14.118;2023-02-11T13:05:28;22.60;;;15.17;;
8331;SDS011;4203;48.144;14.118;2023-02-11T13:08:02;29.77;;;15.00;;
8331;SDS011;4203;48.144;14.118;2023-02-11T13:10:35;25.67;;;14.80;;
8331;SDS011;4203;48.144;14.118;2023-02-11T13:13:04;23.03;;;14.60;;
8331;SDS011;4203;48.144;14.118;2023-02-11T13:15:42;22.23;;;15.00;;
8331;SDS011;4203;48.144;14.118;2023-02-11T13:18:18;21.70;;;14.40;;
8331;SDS011;4203;48.144;14.118;2023-02-11T13:21:14;23.80;;;14.63;;
8331;SDS011;4203;48.144;14.118;2023-02-11T13:23:58;22.73;;;14.57;;
8331;SDS011;4203;48.144;14.118;2023-02-11T13:26:35;23.83;;;13.90;;
8331;SDS011;4203;48.144;14.118;2023-02-11T13:29:12;23.77;;;14.83;;
8331;SDS011;4203;48.144;14.118;2023-02-11T13:31:51;20.70;;;13.60;;
8331;SDS011;4203;48.144;14.118;2023-02-11T13:34:25;19.70;;;13.37;;
8331;SDS011;4203;48.144;14.118;2023-02-11T13:37:18;21.07;;;14.07;;
8331;SDS011;4203;48.144;14.118;2023-02-11T13:40:00;20.43;;;12.83;;
8331;SDS011;4203;48.144;14.118;2023-02-11T13:42:29;20.53;;;13.67;;
8331;SDS011;4203;48.144;14.118;2023-02-11T13:44:58;20.73;;;14.27;;
8331;SDS011;4203;48.144;14.118;2023-02-11T13:47:28;22.80;;;14.03;;
8331;SDS011;4203;48.144;14.118;2023-02-11T13:49:58;23.47;;;14.43;;
8331;SDS011;4203;48.144;14.118;2023-02-11T13:52:29;23.80;;;14.10;;
8331;SDS011;4203;48.144;14.118;2023-02-11T13:55:00;21.97;;;13.57;;
8331;SDS011;4203;48.144;14.118;2023-02-11T13:57:39;24.50;;;14.33;;
8331;SDS011;4203;48.144;14.118;2023-02-11T14:03:26;19.47;;;13.90;;
8331;SDS011;4203;48.144;14.118;2023-02-11T14:06:23;20.00;;;13.77;;
8331;SDS011;4203;48.144;14.118;2023-02-11T14:12:18;21.50;;;13.63;;
8331;SDS011;4203;48.144;14.118;2023-02-11T14:17:52;22.70;;;14.07;;
8331;SDS011;4203;48.144;14.118;2023-02-11T14:20:32;23.97;;;15.13;;
8331;SDS011;4203;48.144;14.118;2023-02-11T14:23:04;23.33;;;14.87;;
8331;SDS011;4203;48.144;14.118;2023-02-11T14:25:32;44.40;;;24.13;;
8331;SDS011;4203;48.144;14.118;2023-02-11T14:28:00;22.57;;;15.07;;
8331;SDS011;4203;48.144;14.118;2023-02-11T14:30:38;28.47;;;16.63;;
8331;SDS011;4203;48.144;14.118;2023-02-11T14:33:18;32.77;;;19.07;;
8331;SDS011;4203;48.144;14.118;2023-02-11T14:36:19;24.30;;;14.97;;
8331;SDS011;4203;48.144;14.118;2023-02-11T14:39:16;27.33;;;17.40;;
8331;SDS011;4203;48.144;14.118;2023-02-11T14:41:50;28.97;;;17.03;;
8331;SDS011;4203;48.144;14.118;2023-02-11T14:44:19;27.30;;;15.97;;
8331;SDS011;4203;48.144;14.118;2023-02-11T14:46:49;21.43;;;14.60;;
8331;SDS011;4203;48.144;14.118;2023-02-11T14:49:20;21.83;;;15.27;;
8331;SDS011;4203;48.144;14.118;2023-02-11T14:51:52;28.20;;;16.03;;
8331;SDS011;4203;48.144;14.118;2023-02-11T14:54:23;21.67;;;14.60;;
8331;SDS011;4203;48.144;14.118;2023-02-11T14:57:06;23.43;;;15.43;;
8331;SDS011;4203;48.144;14.118;2023-02-11T14:59:35;23.87;;;15.83;;
8331;SDS011;4203;48.144;14.118;2023-02-11T15:02:02;22.50;;;15.10;;
8331;SDS011;4203;48.144;14.118;2023-02-11T15:04:45;23.83;;;15.53;;
8331;SDS011;4203;48.144;14.118;2023-02-11T15:07:12;21.73;;;14.50;;
8331;SDS011;4203;48.144;14.118;2023-02-11T15:09:43;20.70;;;14.43;;
8331;SDS011;4203;48.144;14.118;2023-02-11T15:12:14;25.20;;;14.73;;
8331;SDS011;4203;48.144;14.118;2023-02-11T15:14:45;22.13;;;14.57;;
8331;SDS011;4203;48.144;14.118;2023-02-11T15:17:14;20.47;;;14.53;;
8331;SDS011;4203;48.144;14.118;2023-02-11T15:19:47;22.00;;;14.13;;